Time;durP1;ratioP1;P1;durP2;ratioP2;P2;SDS_P1;SDS_P2;PMS_P1;PMS_P2;Temp;Humidity;BMP_temperature;BMP_pressure;BME280_temperature;BME280_humidity;BME280_pressure;Samples;Min_cycle;Max_cycle;Signal;HPM_P1;HPM_P2
2023/09/27 00:00:47;;;;;;;10.38;4.88;;;;;;;25.17;49.09;102036.16;4994563;28;20112;-71
2023/09/27 00:03:13;;;;;;;7.45;4.18;;;;;;;25.19;49.09;102040.47;4993656;28;20026;-71
2023/09/27 00:05:39;;;;;;;8.07;4.57;;;;;;;25.28;49.55;102043.59;5011455;28;20028;-71
2023/09/27 00:08:06;;;;;;;5.93;4.18;;;;;;;25.06;49.52;102042.09;5010611;28;20026;-71
2023/09/27 00:10:32;;;;;;;6.30;4.50;;;;;;;24.94;49.75;102034.69;4994074;28;20512;-71
2023/09/27 00:12:57;;;;;;;8.80;4.72;;;;;;;25.15;49.39;102043.41;5011893;28;20034;-71
2023/09/27 00:15:23;;;;;;;8.57;4.95;;;;;;;25.11;49.44;102044.50;4994287;28;20117;-71
2023/09/27 00:17:49;;;;;;;6.47;4.65;;;;;;;25.18;49.31;102038.78;5011691;28;20125;-71
2023/09/27 00:20:17;;;;;;;8.02;4.68;;;;;;;25.12;49.06;102033.72;5010851;28;20104;-71
2023/09/27 00:22:44;;;;;;;6.85;4.45;;;;;;;25.30;48.42;102031.03;5010599;28;20510;-71
2023/09/27 00:25:09;;;;;;;5.38;4.28;;;;;;;25.07;49.17;102035.78;4993280;28;20057;-71
2023/09/27 00:27:35;;;;;;;6.78;4.75;;;;;;;25.20;48.52;102036.00;4994088;28;20026;-71
2023/09/27 00:30:02;;;;;;;7.22;4.93;;;;;;;25.14;48.89;102036.31;4994207;28;20436;-71
2023/09/27 00:32:27;;;;;;;4.50;3.38;;;;;;;25.08;48.79;102029.47;5011320;28;20049;-71
2023/09/27 00:34:52;;;;;;;5.28;4.22;;;;;;;24.92;49.31;102031.22;5011829;28;20520;-71
2023/09/27 00:37:18;;;;;;;5.57;4.28;;;;;;;25.19;48.54;102028.91;5009710;28;20505;-71
2023/09/27 00:39:44;;;;;;;7.18;3.95;;;;;;;24.77;49.37;102022.19;4993554;28;20163;-71
2023/09/27 00:42:09;;;;;;;7.90;4.60;;;;;;;24.80;49.32;102028.25;5011445;28;20030;-71
2023/09/27 00:44:35;;;;;;;8.82;4.32;;;;;;;24.71;49.76;102034.06;4993473;28;20033;-71
2023/09/27 00:47:02;;;;;;;5.57;4.43;;;;;;;24.65;49.85;102035.25;4993434;28;20025;-71
2023/09/27 00:49:27;;;;;;;5.85;4.43;;;;;;;24.89;49.64;102021.56;5011524;28;20021;-71
2023/09/27 00:51:53;;;;;;;7.47;4.53;;;;;;;24.99;48.97;102021.94;5010375;28;20049;-71
2023/09/27 00:54:19;;;;;;;7.15;4.20;;;;;;;24.72;50.12;102019.75;5011426;28;20513;-71
2023/09/27 00:56:47;;;;;;;10.45;4.95;;;;;;;24.55;50.22;102023.25;5011622;28;20486;-71
2023/09/27 00:59:14;;;;;;;6.63;4.30;;;;;;;24.45;50.47;102022.84;5010447;28;20470;-71
2023/09/27 01:01:41;;;;;;;5.88;4.38;;;;;;;24.64;50.42;102016.63;4993416;28;20108;-71
2023/09/27 01:04:08;;;;;;;6.05;4.53;;;;;;;24.69;50.06;102022.59;5011102;28;20030;-71
2023/09/27 01:06:34;;;;;;;7.63;4.63;;;;;;;24.41;50.19;102025.75;4992745;28;20030;-71
2023/09/27 01:08:59;;;;;;;6.15;4.65;;;;;;;24.64;49.82;102017.47;4993088;28;20025;-71
2023/09/27 01:11:25;;;;;;;7.05;4.18;;;;;;;24.85;49.47;102020.88;4993494;28;20018;-71
2023/09/27 01:13:51;;;;;;;6.60;4.57;;;;;;;24.73;50.28;102016.16;5009979;28;20018;-71
2023/09/27 01:16:16;;;;;;;7.35;4.90;;;;;;;24.48;50.50;102028.06;5011355;28;20056;-71
2023/09/27 01:18:42;;;;;;;11.43;5.10;;;;;;;24.31;51.04;102015.53;4993552;28;20022;-71
2023/09/27 01:21:07;;;;;;;5.15;4.28;;;;;;;24.55;50.36;102018.78;4992265;28;20025;-71
2023/09/27 01:23:34;;;;;;;7.13;5.22;;;;;;;24.54;50.25;102027.72;4989845;28;20050;-71
2023/09/27 01:26:01;;;;;;;6.85;5.05;;;;;;;24.58;50.31;102022.22;4973260;28;20030;-71
2023/09/27 01:28:29;;;;;;;6.95;4.32;;;;;;;24.68;49.99;102018.19;4972983;28;20038;-71
2023/09/27 01:30:54;;;;;;;8.07;5.05;;;;;;;24.65;49.94;102013.00;4990967;28;20483;-71
2023/09/27 01:33:20;;;;;;;8.50;4.93;;;;;;;24.75;49.78;102013.41;4973591;28;20029;-71
2023/09/27 01:35:45;;;;;;;8.82;5.22;;;;;;;24.80;49.88;102017.56;4989095;28;20046;-71
2023/09/27 01:38:12;;;;;;;7.93;4.78;;;;;;;24.86;48.95;102011.88;4973011;28;20033;-71
2023/09/27 01:40:42;;;;;;;7.80;4.47;;;;;;;24.98;49.04;102014.88;4973697;28;20033;-71
2023/09/27 01:43:08;;;;;;;7.68;4.72;;;;;;;24.47;50.76;102017.41;4972598;28;20057;-71
2023/09/27 01:45:34;;;;;;;8.15;5.03;;;;;;;23.50;53.31;102031.75;4973563;28;20026;-71
2023/09/27 01:48:01;;;;;;;9.10;5.45;;;;;;;24.52;50.71;102026.97;4972106;28;20501;-71
2023/09/27 01:50:28;;;;;;;7.43;4.88;;;;;;;24.75;49.85;102024.94;4973614;28;20448;-71
2023/09/27 01:52:56;;;;;;;10.38;5.10;;;;;;;24.64;50.49;102022.81;4990322;28;20084;-71
2023/09/27 01:55:23;;;;;;;9.82;5.80;;;;;;;24.53;50.55;102023.31;4972835;28;20034;-71
2023/09/27 01:57:48;;;;;;;8.95;5.03;;;;;;;24.21;50.98;102025.78;4991128;28;20467;-72
2023/09/27 02:00:15;;;;;;;7.63;5.18;;;;;;;24.48;50.88;102033.41;4972816;28;20030;-71
2023/09/27 02:02:47;;;;;;;7.65;4.85;;;;;;;24.74;50.12;102039.25;4972702;28;20030;-71
2023/09/27 02:05:13;;;;;;;7.50;4.82;;;;;;;24.78;50.02;102035.47;4972824;28;20030;-71
2023/09/27 02:07:39;;;;;;;8.35;5.30;;;;;;;24.66;50.27;102030.75;4973073;28;20041;-71
2023/09/27 02:10:06;;;;;;;6.25;4.78;;;;;;;24.55;49.97;102034.81;4988346;28;20030;-71
2023/09/27 02:12:31;;;;;;;7.85;5.13;;;;;;;24.50;50.39;102036.00;4990486;28;20034;-71
2023/09/27 02:14:56;;;;;;;8.40;5.20;;;;;;;24.56;50.49;102035.66;4972739;28;20457;-71
2023/09/27 02:17:22;;;;;;;7.47;5.07;;;;;;;24.61;49.85;102038.13;4972417;28;20026;-71
2023/09/27 02:19:47;;;;;;;8.20;4.18;;;;;;;24.73;49.16;102032.19;4973123;28;20026;-71
2023/09/27 02:22:13;;;;;;;6.28;4.93;;;;;;;24.63;50.05;102025.56;4989963;28;20483;-71
2023/09/27 02:24:39;;;;;;;6.25;4.65;;;;;;;24.77;49.48;102020.41;4991889;28;20113;-71
2023/09/27 02:27:04;;;;;;;7.13;5.20;;;;;;;24.41;50.33;102025.75;5008173;28;20034;-71
2023/09/27 02:29:30;;;;;;;8.23;4.72;;;;;;;24.59;49.53;102029.31;5009921;28;20026;-71
2023/09/27 02:31:55;;;;;;;6.88;4.68;;;;;;;24.59;49.44;102029.31;5008952;28;20022;-70
2023/09/27 02:34:21;;;;;;;5.72;4.55;;;;;;;24.33;49.98;102027.00;5008502;28;20038;-71
2023/09/27 02:36:46;;;;;;;7.72;5.00;;;;;;;24.16;50.13;102035.81;4992464;28;20033;-71
2023/09/27 02:39:11;;;;;;;7.15;5.07;;;;;;;24.10;50.39;102036.13;5009082;28;20040;-71
2023/09/27 02:41:37;;;;;;;6.90;4.85;;;;;;;24.03;51.00;102022.22;4992324;28;20191;-71
2023/09/27 02:44:03;;;;;;;11.27;5.22;;;;;;;24.14;50.28;102019.03;5009046;28;20026;-71
2023/09/27 02:46:29;;;;;;;7.72;5.30;;;;;;;24.13;50.00;102035.97;5009798;28;20055;-71
2023/09/27 02:48:54;;;;;;;5.45;4.40;;;;;;;24.19;49.71;102027.69;4991503;28;20030;-71
2023/09/27 02:51:20;;;;;;;7.07;4.82;;;;;;;24.18;49.93;102041.97;4991414;28;20116;-71
2023/09/27 02:53:45;;;;;;;6.18;4.80;;;;;;;24.24;50.31;102045.28;5008383;28;20386;-71
2023/09/27 02:56:11;;;;;;;6.65;4.45;;;;;;;24.43;49.73;102045.22;4991611;28;20041;-71
2023/09/27 02:58:40;;;;;;;8.80;4.85;;;;;;;24.18;50.03;102031.28;4991600;28;20383;-71
2023/09/27 03:01:05;;;;;;;7.30;5.15;;;;;;;24.40;49.56;102035.59;4994266;28;20124;-71
2023/09/27 03:03:31;;;;;;;6.05;4.78;;;;;;;23.95;50.71;102050.22;5013388;28;20187;-71
2023/09/27 03:05:58;;;;;;;8.20;4.40;;;;;;;24.52;49.01;102043.00;5010952;28;20041;-70
2023/09/27 03:08:24;;;;;;;7.97;4.85;;;;;;;24.21;49.59;102055.19;5012121;28;20025;-70
2023/09/27 03:10:49;;;;;;;4.90;3.65;;;;;;;24.58;49.31;102049.84;4995784;28;20041;-71
2023/09/27 03:13:15;;;;;;;6.93;4.85;;;;;;;24.74;48.42;102057.97;4994410;28;20025;-71
2023/09/27 03:15:41;;;;;;;7.95;5.18;;;;;;;24.26;50.09;102064.78;5012369;28;20032;-71
2023/09/27 03:18:06;;;;;;;8.77;4.88;;;;;;;24.64;49.42;102054.03;5011599;28;20034;-71
2023/09/27 03:20:32;;;;;;;5.88;4.43;;;;;;;24.73;49.55;102048.22;5012558;28;20427;-71
2023/09/27 03:22:58;;;;;;;6.47;4.28;;;;;;;24.77;49.46;102048.91;5012362;28;20053;-71
2023/09/27 03:25:24;;;;;;;7.57;4.60;;;;;;;24.57;49.64;102042.75;4995458;28;20193;-71
2023/09/27 03:27:49;;;;;;;7.90;4.78;;;;;;;24.67;49.47;102046.72;4994690;28;20072;-71
2023/09/27 03:30:15;;;;;;;5.47;4.40;;;;;;;25.19;48.11;102045.81;5012739;28;20097;-71
2023/09/27 03:32:41;;;;;;;6.38;4.63;;;;;;;24.72;49.16;102049.16;4995394;28;20297;-71
2023/09/27 03:35:07;;;;;;;6.78;4.07;;;;;;;24.74;49.03;102041.91;4994252;28;20461;-71
2023/09/27 03:37:34;;;;;;;6.35;4.03;;;;;;;24.46;49.77;102045.09;4995071;28;20025;-71
2023/09/27 03:40:01;;;;;;;9.20;4.10;;;;;;;24.54;49.41;102051.78;5012534;28;20022;-71
2023/09/27 03:42:26;;;;;;;5.20;4.03;;;;;;;24.46;49.83;102056.66;5012472;28;20053;-71
2023/09/27 03:44:54;;;;;;;5.97;3.88;;;;;;;24.56;49.61;102057.94;5012110;28;20385;-71
2023/09/27 03:47:20;;;;;;;6.65;4.57;;;;;;;24.85;48.79;102060.97;4994841;28;20116;-71
2023/09/27 03:49:45;;;;;;;6.55;4.47;;;;;;;24.78;49.26;102061.34;4994973;28;20451;-72
2023/09/27 03:52:11;;;;;;;9.05;4.18;;;;;;;24.74;49.23;102060.63;5012327;28;20088;-71
2023/09/27 03:54:36;;;;;;;4.35;3.65;;;;;;;24.91;48.86;102067.81;5010589;28;20106;-71
2023/09/27 03:57:02;;;;;;;11.90;4.30;;;;;;;24.99;48.67;102059.38;5012300;28;20026;-71
2023/09/27 03:59:28;;;;;;;6.85;4.22;;;;;;;24.81;49.09;102053.16;4995057;28;20382;-71
2023/09/27 04:01:54;;;;;;;6.03;3.80;;;;;;;25.37;48.46;102051.19;5011657;28;20028;-71
2023/09/27 04:04:19;;;;;;;5.50;4.03;;;;;;;24.98;48.89;102042.47;5012592;28;20022;-71
2023/09/27 04:06:44;;;;;;;6.70;3.45;;;;;;;25.34;48.33;102052.19;4994712;28;20410;-71
2023/09/27 04:09:10;;;;;;;6.70;4.18;;;;;;;25.23;48.40;102051.88;4993740;28;20921;-71
2023/09/27 04:11:36;;;;;;;4.75;3.95;;;;;;;24.90;48.85;102040.19;4993512;28;20029;-71
2023/09/27 04:14:03;;;;;;;5.63;3.63;;;;;;;25.10;48.60;102050.78;4994267;28;20038;-71
2023/09/27 04:16:30;;;;;;;6.53;4.00;;;;;;;25.14;48.29;102050.56;4994016;28;20338;-71
2023/09/27 04:18:57;;;;;;;6.53;4.57;;;;;;;24.84;48.97;102050.31;5011582;28;20045;-71
2023/09/27 04:21:23;;;;;;;6.80;4.00;;;;;;;24.99;48.64;102029.97;4994695;28;20030;-71
2023/09/27 04:23:56;;;;;;;7.03;5.10;;;;;;;25.21;48.26;102033.25;4990299;28;20379;-71
2023/09/27 04:26:23;;;;;;;7.80;4.30;;;;;;;24.89;48.69;102033.13;4975071;28;20056;-71
2023/09/27 04:28:49;;;;;;;10.43;4.90;;;;;;;25.16;48.20;102043.31;4974822;28;20023;-71
2023/09/27 04:31:15;;;;;;;7.25;4.60;;;;;;;24.88;48.88;102041.22;4991605;28;20022;-71
2023/09/27 04:33:44;;;;;;;7.90;4.97;;;;;;;24.75;49.19;102035.63;4991161;28;20370;-71
2023/09/27 04:36:15;;;;;;;6.28;4.55;;;;;;;24.75;49.37;102024.94;4974678;28;20042;-71
2023/09/27 04:38:41;;;;;;;14.27;5.78;;;;;;;24.80;49.00;102025.59;4974072;28;20044;-71
2023/09/27 04:41:06;;;;;;;8.68;5.85;;;;;;;24.52;49.69;102016.28;4991754;28;20482;-71
2023/09/27 04:43:31;;;;;;;7.72;4.82;;;;;;;24.84;49.07;102013.78;4974460;28;20026;-71
2023/09/27 04:45:57;;;;;;;10.50;6.40;;;;;;;24.50;49.99;102026.16;4973448;28;20479;-71
2023/09/27 04:48:22;;;;;;;8.70;5.07;;;;;;;24.57;49.29;102037.41;4990750;28;20065;-71
2023/09/27 04:50:48;;;;;;;7.53;4.88;;;;;;;24.39;49.90;102026.69;4973884;28;20034;-71
2023/09/27 04:53:13;;;;;;;9.88;5.45;;;;;;;24.42;49.95;102033.69;4973995;28;20042;-71
2023/09/27 04:55:38;;;;;;;9.30;6.00;;;;;;;24.45;49.75;102028.19;4974242;28;20030;-71
2023/09/27 04:58:06;;;;;;;7.97;5.60;;;;;;;24.44;49.67;102018.47;4990670;28;20024;-71
2023/09/27 05:00:31;;;;;;;6.28;5.25;;;;;;;24.26;50.34;102016.69;4991891;28;20578;-71
2023/09/27 05:02:56;;;;;;;8.45;5.40;;;;;;;24.24;50.34;102023.94;4974067;28;20112;-71
2023/09/27 05:05:22;;;;;;;8.63;4.55;;;;;;;24.19;50.39;102014.34;4990884;28;20034;-71
2023/09/27 05:07:48;;;;;;;8.32;4.68;;;;;;;24.26;50.19;102022.03;4974078;28;20470;-71
2023/09/27 05:10:14;;;;;;;9.05;4.72;;;;;;;24.45;49.19;102022.00;4973698;28;20022;-71
2023/09/27 05:12:39;;;;;;;5.93;4.32;;;;;;;24.40;49.59;102000.84;4973746;28;20022;-71
2023/09/27 05:15:06;;;;;;;7.57;4.68;;;;;;;24.19;50.12;102011.66;4973736;28;20022;-71
2023/09/27 05:17:31;;;;;;;8.25;4.95;;;;;;;23.98;50.88;102008.22;4974130;28;20117;-72
2023/09/27 05:19:57;;;;;;;7.07;4.38;;;;;;;24.44;49.90;102007.78;4990332;28;20033;-70
2023/09/27 05:22:23;;;;;;;4.97;3.80;;;;;;;24.36;50.38;102012.63;4973710;28;20552;-70
2023/09/27 05:24:48;;;;;;;7.50;4.38;;;;;;;24.52;50.10;102013.59;4989567;28;20053;-70
2023/09/27 05:27:13;;;;;;;6.63;4.43;;;;;;;24.74;49.26;102017.84;4972504;28;20057;-71
2023/09/27 05:29:39;;;;;;;5.70;3.78;;;;;;;24.77;49.34;102012.38;4973841;28;20031;-70
2023/09/27 05:32:05;;;;;;;6.25;4.07;;;;;;;24.18;51.20;102015.28;4990970;28;20027;-71
2023/09/27 05:34:31;;;;;;;6.35;4.38;;;;;;;23.72;52.76;102012.09;4973147;28;20030;-70
2023/09/27 05:36:57;;;;;;;9.73;4.97;;;;;;;24.32;51.06;102001.22;4990442;28;20037;-72
2023/09/27 05:39:23;;;;;;;5.85;4.18;;;;;;;24.33;50.63;102007.41;4973563;28;20058;-72
2023/09/27 05:41:48;;;;;;;8.35;4.38;;;;;;;24.16;51.09;102005.59;4972801;28;20092;-72
2023/09/27 05:44:14;;;;;;;7.55;4.82;;;;;;;24.16;51.64;101998.44;4991087;28;20097;-72
2023/09/27 05:46:43;;;;;;;10.77;5.25;;;;;;;24.21;51.15;102009.75;4989492;28;20517;-72
2023/09/27 05:49:11;;;;;;;6.68;4.45;;;;;;;23.88;52.04;102010.47;4988452;28;20084;-72
2023/09/27 05:51:36;;;;;;;6.15;4.78;;;;;;;23.59;53.27;102027.81;4973560;28;20040;-72
2023/09/27 05:54:02;;;;;;;8.82;5.00;;;;;;;23.82;52.77;102028.53;4972461;28;20381;-72
2023/09/27 05:56:28;;;;;;;10.85;5.32;;;;;;;24.09;52.02;102037.06;4989685;28;20482;-72
2023/09/27 05:58:54;;;;;;;6.60;5.32;;;;;;;23.80;53.32;102019.75;4990390;28;20023;-72
2023/09/27 06:01:19;;;;;;;6.78;4.93;;;;;;;24.20;52.24;102012.53;4973021;28;20905;-72
2023/09/27 06:03:46;;;;;;;8.85;5.55;;;;;;;24.54;51.10;102014.38;4989531;28;20505;-71
2023/09/27 06:06:12;;;;;;;11.23;6.10;;;;;;;24.02;52.74;102014.28;4972816;28;20529;-72
2023/09/27 06:08:38;;;;;;;11.00;6.00;;;;;;;23.62;53.91;102016.16;4989852;28;20033;-72
2023/09/27 06:11:03;;;;;;;9.10;5.97;;;;;;;24.10;52.65;102017.44;4972631;28;20483;-72
2023/09/27 06:13:29;;;;;;;7.65;5.40;;;;;;;24.40;51.85;102014.22;4990985;28;20065;-72
2023/09/27 06:15:54;;;;;;;9.00;5.22;;;;;;;24.27;52.09;102011.25;4988110;28;20124;-72
2023/09/27 06:18:20;;;;;;;8.73;5.65;;;;;;;24.37;51.50;102007.22;4973081;28;20015;-72
2023/09/27 06:20:47;;;;;;;10.18;5.50;;;;;;;23.81;53.81;102011.66;4990295;28;20028;-72
2023/09/27 06:23:12;;;;;;;9.35;6.43;;;;;;;24.04;52.89;102018.63;4995393;28;20514;-72
2023/09/27 06:25:43;;;;;;;10.27;6.30;;;;;;;23.86;53.79;102015.00;5010159;28;20026;-72
2023/09/27 06:28:11;;;;;;;9.85;6.05;;;;;;;23.96;53.40;102020.78;4991756;28;20026;-71
2023/09/27 06:30:37;;;;;;;11.10;6.97;;;;;;;24.38;52.40;102005.41;4991754;28;20065;-72
2023/09/27 06:33:03;;;;;;;10.07;6.55;;;;;;;23.70;53.91;101997.97;5008029;28;20417;-72
2023/09/27 06:35:31;;;;;;;10.13;6.45;;;;;;;23.82;53.87;101993.84;4991728;28;20429;-72
2023/09/27 06:38:00;;;;;;;9.63;6.70;;;;;;;24.15;53.25;101980.72;4991106;28;20419;-72
2023/09/27 06:40:26;;;;;;;9.60;6.78;;;;;;;24.40;52.85;101976.81;4992157;28;20021;-72
2023/09/27 06:42:52;;;;;;;9.82;6.78;;;;;;;24.51;52.39;101982.47;5009850;28;20032;-71
2023/09/27 06:45:18;;;;;;;9.27;7.00;;;;;;;24.46;52.32;101992.50;5007737;28;20109;-71
2023/09/27 06:47:45;;;;;;;11.45;7.85;;;;;;;24.34;52.87;101987.78;5009784;28;20474;-72
2023/09/27 06:50:14;;;;;;;12.63;6.78;;;;;;;24.37;53.33;101984.97;5009270;28;20214;-72
2023/09/27 06:52:40;;;;;;;11.48;8.07;;;;;;;24.81;52.22;102002.38;4992217;28;20078;-72
2023/09/27 06:55:12;;;;;;;10.20;7.75;;;;;;;24.55;52.58;102024.13;5009381;28;20439;-72
2023/09/27 06:57:40;;;;;;;11.27;7.75;;;;;;;24.81;51.90;102013.94;4991398;28;20026;-72
2023/09/27 07:00:18;;;;;;;12.02;8.13;;;;;;;24.65;51.93;102034.38;4991684;28;20398;-72
2023/09/27 07:02:47;;;;;;;11.52;7.95;;;;;;;24.02;53.86;102054.34;4992074;28;20041;-72
2023/09/27 07:05:12;;;;;;;12.98;6.82;;;;;;;24.20;54.52;102058.78;4990755;28;20030;-71
2023/09/27 07:07:38;;;;;;;9.95;7.25;;;;;;;24.38;54.03;102053.47;5009537;28;20029;-72
2023/09/27 07:10:04;;;;;;;10.15;6.78;;;;;;;24.76;52.59;102053.41;5009187;28;20025;-72
2023/09/27 07:12:30;;;;;;;11.35;7.05;;;;;;;24.96;52.11;102048.84;4990985;28;20030;-71
2023/09/27 07:14:57;;;;;;;12.05;7.18;;;;;;;25.34;51.03;102060.22;4991413;28;20425;-72
2023/09/27 07:17:24;;;;;;;11.82;8.02;;;;;;;24.40;53.60;102062.31;4991870;28;20066;-71
2023/09/27 07:19:53;;;;;;;11.27;7.32;;;;;;;24.91;52.27;102065.13;4990861;28;20041;-71
2023/09/27 07:22:19;;;;;;;11.57;6.97;;;;;;;25.20;52.26;102068.09;4992059;28;20057;-71
2023/09/27 07:24:45;;;;;;;11.88;7.50;;;;;;;25.07;52.69;102067.88;4988512;28;20596;-71
2023/09/27 07:27:10;;;;;;;14.35;7.97;;;;;;;25.64;51.76;102061.34;4971328;28;20342;-71
2023/09/27 07:29:36;;;;;;;12.13;7.30;;;;;;;26.04;49.77;102059.16;4989962;28;20031;-71
2023/09/27 07:32:02;;;;;;;13.25;7.40;;;;;;;26.03;50.58;102057.44;4988009;28;20108;-71
2023/09/27 07:34:27;;;;;;;11.75;8.27;;;;;;;26.25;50.21;102057.06;4987640;28;20447;-71
2023/09/27 07:36:53;;;;;;;14.18;8.40;;;;;;;26.90;49.96;102056.00;4987887;28;20029;-71
2023/09/27 07:39:20;;;;;;;13.93;8.20;;;;;;;27.26;49.19;102054.75;4988508;28;20449;-72
2023/09/27 07:41:45;;;;;;;12.63;7.68;;;;;;;27.41;48.46;102069.06;4987690;28;20023;-71
2023/09/27 07:44:12;;;;;;;12.80;7.95;;;;;;;27.07;48.46;102065.72;4971569;28;20502;-71
2023/09/27 07:46:38;;;;;;;10.95;6.97;;;;;;;27.19;48.14;102062.31;4988875;28;20026;-71
2023/09/27 07:49:04;;;;;;;14.05;7.50;;;;;;;27.93;47.19;102071.13;4991388;28;20312;-71
2023/09/27 07:51:29;;;;;;;13.13;7.43;;;;;;;27.85;46.59;102075.25;4993079;28;20085;-71
2023/09/27 07:53:55;;;;;;;10.88;6.72;;;;;;;27.20;47.71;102072.09;4991714;28;20026;-71
2023/09/27 07:56:26;;;;;;;9.50;7.40;;;;;;;27.77;47.35;102075.75;4991510;28;20059;-71
2023/09/27 07:58:53;;;;;;;9.63;7.28;;;;;;;27.45;48.00;102075.97;4991165;28;20387;-72
2023/09/27 08:01:23;;;;;;;11.35;7.43;;;;;;;27.67;48.29;102066.53;4992188;28;20032;-71
2023/09/27 08:03:51;;;;;;;13.15;7.25;;;;;;;27.97;47.73;102068.22;4975642;28;20109;-72
2023/09/27 08:06:17;;;;;;;10.27;7.22;;;;;;;27.52;48.85;102074.63;4992500;28;20030;-71
2023/09/27 08:08:43;;;;;;;14.90;7.00;;;;;;;28.00;47.63;102070.75;4974626;28;20038;-72
2023/09/27 08:11:14;;;;;;;11.50;6.97;;;;;;;28.10;47.11;102074.56;4991048;28;20022;-72
2023/09/27 08:13:40;;;;;;;16.30;7.45;;;;;;;27.96;47.39;102063.81;4975095;28;20128;-71
2023/09/27 08:16:07;;;;;;;10.60;6.68;;;;;;;27.90;47.50;102065.97;4991586;28;20030;-71
2023/09/27 08:18:34;;;;;;;10.48;7.05;;;;;;;27.66;47.96;102062.16;4992474;28;20175;-72
2023/09/27 08:21:03;;;;;;;14.90;7.05;;;;;;;27.75;48.35;102072.28;4990810;28;20031;-70
2023/09/27 08:23:29;;;;;;;12.52;7.75;;;;;;;28.04;47.45;102083.03;5000115;28;20514;-70
2023/09/27 08:25:55;;;;;;;13.05;7.35;;;;;;;28.13;47.12;102086.97;4993911;28;20025;-70
2023/09/27 08:28:21;;;;;;;13.20;8.10;;;;;;;28.23;46.58;102077.31;5010518;28;20129;-70
2023/09/27 08:30:47;;;;;;;13.35;7.18;;;;;;;28.41;47.06;102075.22;4993693;28;20113;-70
2023/09/27 08:33:13;;;;;;;12.18;7.47;;;;;;;28.15;47.30;102059.03;4993686;28;20029;-70
2023/09/27 08:35:38;;;;;;;12.35;7.97;;;;;;;28.15;47.56;102052.75;4994274;28;20032;-70
2023/09/27 08:38:04;;;;;;;13.75;8.18;;;;;;;27.93;48.28;102055.00;4992932;28;20030;-70
2023/09/27 08:40:29;;;;;;;11.38;8.02;;;;;;;27.97;48.28;102044.91;5010288;28;20375;-70
2023/09/27 08:42:59;;;;;;;11.77;7.72;;;;;;;27.87;48.73;102030.38;5009249;28;20095;-70
2023/09/27 08:45:26;;;;;;;14.73;8.40;;;;;;;27.65;48.88;102034.41;4994140;28;20021;-70
2023/09/27 08:47:53;;;;;;;13.65;8.07;;;;;;;27.87;48.60;102055.38;4993525;28;20036;-70
2023/09/27 08:50:19;;;;;;;13.52;8.10;;;;;;;28.00;48.51;102065.38;4993409;28;20023;-70
2023/09/27 08:52:46;;;;;;;13.65;8.30;;;;;;;27.86;48.87;102048.31;4993850;28;20493;-71
2023/09/27 08:55:12;;;;;;;13.88;8.70;;;;;;;28.49;47.77;102040.63;5009604;28;20030;-72
2023/09/27 08:57:46;;;;;;;14.02;8.90;;;;;;;28.31;48.14;102041.88;4992317;28;20088;-72
2023/09/27 09:00:19;;;;;;;14.15;8.60;;;;;;;27.94;49.11;102042.44;4993407;28;20034;-72
2023/09/27 09:02:48;;;;;;;13.05;8.45;;;;;;;28.38;48.36;102080.81;4993727;28;20079;-71
2023/09/27 09:05:15;;;;;;;12.70;8.00;;;;;;;28.03;48.93;102095.59;4992556;28;20029;-72
2023/09/27 09:07:41;;;;;;;14.73;8.18;;;;;;;28.08;49.06;102057.69;5010979;28;20045;-71
2023/09/27 09:10:13;;;;;;;14.63;7.68;;;;;;;28.21;48.61;102047.84;5009638;28;20477;-71
2023/09/27 09:12:41;;;;;;;14.55;8.20;;;;;;;28.48;48.28;102038.94;4993406;28;20030;-72
2023/09/27 09:15:08;;;;;;;10.93;7.22;;;;;;;28.64;47.76;102043.28;4993311;28;20022;-71
2023/09/27 09:17:34;;;;;;;14.00;8.80;;;;;;;28.09;49.14;102032.53;4993685;28;20390;-71
2023/09/27 09:20:15;;;;;;;13.43;7.82;;;;;;;28.36;48.42;102066.63;5009998;28;20029;-71
2023/09/27 09:22:47;;;;;;;11.75;7.75;;;;;;;27.39;50.39;102052.19;5009464;28;20057;-71
2023/09/27 09:25:13;;;;;;;14.07;7.97;;;;;;;28.63;47.76;102044.22;4992143;28;20456;-71
2023/09/27 09:27:39;;;;;;;12.00;6.82;;;;;;;28.56;47.62;102058.09;5010872;28;20045;-71
2023/09/27 09:30:11;;;;;;;17.13;8.25;;;;;;;28.45;48.03;102039.09;4992595;28;20060;-71
2023/09/27 09:32:48;;;;;;;12.05;7.28;;;;;;;28.93;47.41;102044.84;4992393;28;20025;-71
2023/09/27 09:35:28;;;;;;;14.63;8.38;;;;;;;29.09;46.40;102030.31;5010395;28;20099;-71
2023/09/27 09:37:53;;;;;;;13.68;7.82;;;;;;;28.20;48.38;102019.25;5010426;28;20599;-71
2023/09/27 09:40:18;;;;;;;13.80;8.10;;;;;;;28.82;47.28;102036.63;4992452;28;20029;-71
2023/09/27 09:42:48;;;;;;;13.85;8.35;;;;;;;28.64;46.91;102040.59;5009463;28;20116;-71
2023/09/27 09:45:14;;;;;;;14.40;8.32;;;;;;;28.26;48.24;102045.72;4992725;28;20053;-71
2023/09/27 09:47:43;;;;;;;16.55;8.55;;;;;;;28.69;46.77;102051.91;5008463;28;20060;-71
2023/09/27 09:50:16;;;;;;;14.32;8.27;;;;;;;28.91;47.03;102027.94;5010313;28;20022;-71
2023/09/27 09:53:05;;;;;;;13.52;7.85;;;;;;;28.12;48.14;102043.06;5009040;28;20415;-71
2023/09/27 09:55:30;;;;;;;12.75;7.30;;;;;;;28.86;47.09;102016.63;5010124;28;20030;-71
2023/09/27 09:58:05;;;;;;;15.45;8.40;;;;;;;28.81;46.71;102021.50;4992256;28;20389;-71
2023/09/27 10:00:35;;;;;;;13.20;8.38;;;;;;;28.84;46.83;102023.06;5008660;28;20030;-71
2023/09/27 10:03:00;;;;;;;16.73;8.75;;;;;;;28.82;46.87;102023.19;5009898;28;20037;-71
2023/09/27 10:05:34;;;;;;;13.38;7.65;;;;;;;28.81;46.33;102024.19;4992530;28;20038;-71
2023/09/27 10:07:59;;;;;;;14.23;8.27;;;;;;;29.15;45.72;102013.72;5009049;28;20022;-71
2023/09/27 10:10:25;;;;;;;13.93;7.82;;;;;;;28.98;46.07;102003.31;5008158;28;20041;-71
2023/09/27 10:12:53;;;;;;;13.57;8.05;;;;;;;29.33;45.75;101987.34;4992226;28;20029;-73
2023/09/27 10:15:20;;;;;;;13.57;7.35;;;;;;;29.68;44.84;101975.03;5008001;28;20029;-71
2023/09/27 10:17:46;;;;;;;11.85;7.28;;;;;;;28.15;48.41;101970.34;4992391;28;20160;-71
2023/09/27 10:20:14;;;;;;;12.05;7.97;;;;;;;28.81;46.70;101970.38;4991940;28;20708;-71
2023/09/27 10:22:44;;;;;;;16.73;8.60;;;;;;;29.38;45.67;101968.19;4991121;28;20049;-72
2023/09/27 10:25:27;;;;;;;16.75;8.90;;;;;;;29.31;45.30;101970.47;5009876;28;20085;-71
2023/09/27 10:27:58;;;;;;;13.88;8.13;;;;;;;28.74;46.97;101969.06;5009272;28;20068;-71
2023/09/27 10:30:24;;;;;;;19.67;8.57;;;;;;;29.10;45.86;101965.63;4991542;28;20034;-71
2023/09/27 10:33:15;;;;;;;19.48;9.32;;;;;;;29.58;45.15;101959.53;4991957;28;20037;-71
2023/09/27 10:35:46;;;;;;;14.18;7.93;;;;;;;28.55;46.78;101947.91;4991601;28;20034;-71
2023/09/27 10:38:12;;;;;;;16.60;8.65;;;;;;;28.39;47.36;101932.00;4991550;28;20120;-71
2023/09/27 10:40:42;;;;;;;15.90;9.38;;;;;;;28.29;48.61;101929.09;4992122;28;20470;-71
2023/09/27 10:43:07;;;;;;;16.35;8.20;;;;;;;29.07;47.67;101927.28;4990904;28;20033;-72
2023/09/27 10:45:33;;;;;;;15.85;8.45;;;;;;;29.60;46.61;101932.47;5008715;28;20026;-72
2023/09/27 10:48:15;;;;;;;18.00;8.77;;;;;;;29.40;47.60;101924.03;4991571;28;20561;-71
2023/09/27 10:50:52;;;;;;;19.42;8.32;;;;;;;30.21;46.18;101923.47;5009268;28;20124;-71
2023/09/27 10:53:18;;;;;;;14.88;8.15;;;;;;;29.50;46.24;101918.84;4992238;28;20072;-71
2023/09/27 10:55:44;;;;;;;17.67;7.43;;;;;;;29.50;47.27;101918.84;4992034;28;20032;-71
2023/09/27 10:58:16;;;;;;;11.85;7.28;;;;;;;29.87;45.92;101920.63;4990755;28;20030;-71
2023/09/27 11:00:54;;;;;;;13.43;7.40;;;;;;;29.43;46.60;101928.34;5009816;28;20520;-71
2023/09/27 11:03:21;;;;;;;15.70;7.32;;;;;;;29.39;46.57;101921.47;4991781;28;20056;-71
2023/09/27 11:05:47;;;;;;;18.08;7.50;;;;;;;29.84;45.56;101916.31;4991720;28;20076;-71
2023/09/27 11:08:20;;;;;;;12.50;6.90;;;;;;;30.15;46.09;101895.16;4991597;28;20025;-71
2023/09/27 11:10:45;;;;;;;10.60;7.88;;;;;;;30.23;45.79;101903.50;5009015;28;20034;-72
2023/09/27 11:13:12;;;;;;;12.30;6.78;;;;;;;30.52;44.92;101915.75;4991886;28;20116;-72
2023/09/27 11:15:39;;;;;;;15.90;7.03;;;;;;;31.01;44.13;101901.06;5008132;28;20522;-72
2023/09/27 11:18:07;;;;;;;10.82;6.85;;;;;;;30.66;43.97;101899.31;4990694;28;20112;-72
2023/09/27 11:20:32;;;;;;;9.40;5.88;;;;;;;29.90;45.13;101904.25;5009717;28;20116;-72